sensor_id;sensor_type;location;lat;lon;timestamp;P1;durP1;ratioP1;P2;durP2;ratioP2
59062;SDS011;44851;45.648;9.004;2023-04-03T08:50:42;5.00;;;4.00;;
59062;SDS011;44851;45.648;9.004;2023-04-03T08:53:15;7.50;;;3.93;;
59062;SDS011;44851;45.648;9.004;2023-04-03T08:55:47;5.50;;;4.97;;
59062;SDS011;44851;45.648;9.004;2023-04-03T08:58:19;5.20;;;4.37;;
59062;SDS011;44851;45.648;9.004;2023-04-03T09:01:03;4.70;;;4.30;;
59062;SDS011;44851;45.648;9.004;2023-04-03T09:03:31;3.80;;;3.50;;
59062;SDS011;44851;45.648;9.004;2023-04-03T09:11:26;5.37;;;4.37;;
59062;SDS011;44851;45.648;9.004;2023-04-03T09:24:31;6.57;;;4.17;;
59062;SDS011;44851;45.648;9.004;2023-04-03T09:29:33;5.23;;;4.07;;
59062;SDS011;44851;45.648;9.004;2023-04-03T09:32:26;4.97;;;3.80;;
59062;SDS011;44851;45.648;9.004;2023-04-03T09:34:57;4.83;;;3.70;;
59062;SDS011;44851;45.648;9.004;2023-04-03T09:37:39;4.20;;;3.30;;
59062;SDS011;44851;45.648;9.004;2023-04-03T09:43:23;5.53;;;3.47;;
59062;SDS011;44851;45.648;9.004;2023-04-03T09:45:49;4.97;;;4.00;;
59062;SDS011;44851;45.648;9.004;2023-04-03T09:48:18;4.47;;;4.07;;
59062;SDS011;44851;45.648;9.004;2023-04-03T09:53:39;5.03;;;4.00;;
59062;SDS011;44851;45.648;9.004;2023-04-03T09:58:51;5.50;;;3.93;;
59062;SDS011;44851;45.648;9.004;2023-04-03T10:01:36;5.80;;;3.93;;
59062;SDS011;44851;45.648;9.004;2023-04-03T10:04:12;4.30;;;3.90;;
59062;SDS011;44851;45.648;9.004;2023-04-03T10:06:44;4.67;;;4.17;;
59062;SDS011;44851;45.648;9.004;2023-04-03T10:12:07;4.47;;;3.57;;
59062;SDS011;44851;45.648;9.004;2023-04-03T10:14:37;4.50;;;4.10;;
59062;SDS011;44851;45.648;9.004;2023-04-03T10:27:54;5.63;;;4.30;;
59062;SDS011;44851;45.648;9.004;2023-04-03T10:36:07;4.83;;;4.40;;
59062;SDS011;44851;45.648;9.004;2023-04-03T10:39:00;6.20;;;4.60;;
59062;SDS011;44851;45.648;9.004;2023-04-03T10:49:49;5.97;;;4.33;;
59062;SDS011;44851;45.648;9.004;2023-04-03T10:57:50;5.00;;;4.60;;
59062;SDS011;44851;45.648;9.004;2023-04-03T11:00:18;5.10;;;4.60;;
59062;SDS011;44851;45.648;9.004;2023-04-03T11:02:54;6.07;;;4.53;;
59062;SDS011;44851;45.648;9.004;2023-04-03T11:05:42;4.93;;;4.53;;
59062;SDS011;44851;45.648;9.004;2023-04-03T11:08:19;4.90;;;4.13;;
59062;SDS011;44851;45.648;9.004;2023-04-03T11:10:48;4.20;;;3.90;;
59062;SDS011;44851;45.648;9.004;2023-04-03T11:16:03;4.37;;;3.97;;
59062;SDS011;44851;45.648;9.004;2023-04-03T11:23:45;4.73;;;3.80;;
59062;SDS011;44851;45.648;9.004;2023-04-03T11:26:12;4.93;;;4.00;;
59062;SDS011;44851;45.648;9.004;2023-04-03T11:28:41;3.90;;;3.60;;
59062;SDS011;44851;45.648;9.004;2023-04-03T11:31:32;5.43;;;4.20;;
59062;SDS011;44851;45.648;9.004;2023-04-03T11:36:30;4.07;;;3.67;;
59062;SDS011;44851;45.648;9.004;2023-04-03T11:39:03;5.43;;;3.60;;
59062;SDS011;44851;45.648;9.004;2023-04-03T11:41:41;5.00;;;4.50;;
59062;SDS011;44851;45.648;9.004;2023-04-03T11:46:58;4.43;;;4.03;;
59062;SDS011;44851;45.648;9.004;2023-04-03T12:08:25;4.27;;;3.97;;
59062;SDS011;44851;45.648;9.004;2023-04-03T12:11:13;4.50;;;3.87;;
59062;SDS011;44851;45.648;9.004;2023-04-03T12:21:15;4.10;;;3.67;;
59062;SDS011;44851;45.648;9.004;2023-04-03T12:24:00;4.63;;;4.23;;
59062;SDS011;44851;45.648;9.004;2023-04-03T12:31:55;3.83;;;3.53;;
59062;SDS011;44851;45.648;9.004;2023-04-03T12:45:24;5.17;;;3.83;;
59062;SDS011;44851;45.648;9.004;2023-04-03T12:47:52;5.03;;;3.30;;
59062;SDS011;44851;45.648;9.004;2023-04-03T12:50:24;3.63;;;3.33;;
59062;SDS011;44851;45.648;9.004;2023-04-03T12:53:04;5.87;;;3.73;;
59062;SDS011;44851;45.648;9.004;2023-04-03T12:55:42;4.10;;;3.23;;
59062;SDS011;44851;45.648;9.004;2023-04-03T12:58:19;3.87;;;3.47;;
59062;SDS011;44851;45.648;9.004;2023-04-03T13:00:58;4.53;;;3.43;;
59062;SDS011;44851;45.648;9.004;2023-04-03T13:03:26;4.77;;;3.70;;
59062;SDS011;44851;45.648;9.004;2023-04-03T13:05:53;4.70;;;3.77;;
59062;SDS011;44851;45.648;9.004;2023-04-03T13:08:24;4.57;;;3.80;;
59062;SDS011;44851;45.648;9.004;2023-04-03T13:10:54;4.37;;;3.50;;
59062;SDS011;44851;45.648;9.004;2023-04-03T13:13:26;3.47;;;3.17;;
59062;SDS011;44851;45.648;9.004;2023-04-03T13:15:53;3.60;;;3.30;;
59062;SDS011;44851;45.648;9.004;2023-04-03T13:18:30;5.00;;;3.73;;
59062;SDS011;44851;45.648;9.004;2023-04-03T13:21:17;3.53;;;3.07;;
59062;SDS011;44851;45.648;9.004;2023-04-03T13:23:45;3.93;;;3.63;;
59062;SDS011;44851;45.648;9.004;2023-04-03T13:26:15;6.30;;;3.23;;
59062;SDS011;44851;45.648;9.004;2023-04-03T13:28:43;3.67;;;3.27;;
59062;SDS011;44851;45.648;9.004;2023-04-03T13:33:43;4.33;;;3.93;;
59062;SDS011;44851;45.648;9.004;2023-04-03T13:36:25;4.40;;;3.90;;
59062;SDS011;44851;45.648;9.004;2023-04-03T13:41:41;3.70;;;3.37;;
59062;SDS011;44851;45.648;9.004;2023-04-03T13:46:46;3.83;;;3.30;;
59062;SDS011;44851;45.648;9.004;2023-04-03T13:49:20;5.10;;;3.90;;
59062;SDS011;44851;45.648;9.004;2023-04-03T13:52:01;3.40;;;3.10;;
59062;SDS011;44851;45.648;9.004;2023-04-03T13:54:42;3.73;;;3.13;;
59062;SDS011;44851;45.648;9.004;2023-04-03T13:57:13;7.13;;;3.33;;
59062;SDS011;44851;45.648;9.004;2023-04-03T13:59:41;7.50;;;3.20;;
59062;SDS011;44851;45.648;9.004;2023-04-03T14:07:02;3.77;;;2.90;;
59062;SDS011;44851;45.648;9.004;2023-04-03T14:09:28;3.40;;;3.10;;
59062;SDS011;44851;45.648;9.004;2023-04-03T14:11:54;2.70;;;2.50;;
59062;SDS011;44851;45.648;9.004;2023-04-03T14:14:26;3.07;;;2.77;;
59062;SDS011;44851;45.648;9.004;2023-04-03T14:16:57;4.00;;;2.83;;
59062;SDS011;44851;45.648;9.004;2023-04-03T14:19:26;4.23;;;2.90;;
59062;SDS011;44851;45.648;9.004;2023-04-03T14:21:57;3.30;;;2.80;;
59062;SDS011;44851;45.648;9.004;2023-04-03T14:24:23;4.87;;;3.10;;
59062;SDS011;44851;45.648;9.004;2023-04-03T14:26:49;2.70;;;2.50;;
59062;SDS011;44851;45.648;9.004;2023-04-03T14:29:17;4.27;;;2.50;;
59062;SDS011;44851;45.648;9.004;2023-04-03T14:31:43;2.67;;;2.47;;
59062;SDS011;44851;45.648;9.004;2023-04-03T14:34:10;4.93;;;2.70;;
59062;SDS011;44851;45.648;9.004;2023-04-03T14:36:36;3.80;;;2.87;;
59062;SDS011;44851;45.648;9.004;2023-04-03T14:39:03;2.97;;;2.77;;
59062;SDS011;44851;45.648;9.004;2023-04-03T14:41:30;4.00;;;3.17;;
59062;SDS011;44851;45.648;9.004;2023-04-03T14:43:55;3.83;;;2.90;;
59062;SDS011;44851;45.648;9.004;2023-04-03T14:49:01;4.53;;;2.80;;
59062;SDS011;44851;45.648;9.004;2023-04-03T14:51:27;4.20;;;2.70;;
59062;SDS011;44851;45.648;9.004;2023-04-03T14:53:53;3.73;;;2.77;;
59062;SDS011;44851;45.648;9.004;2023-04-03T14:56:24;3.80;;;3.13;;
59062;SDS011;44851;45.648;9.004;2023-04-03T14:58:54;3.00;;;2.80;;
59062;SDS011;44851;45.648;9.004;2023-04-03T15:01:22;3.10;;;2.80;;
59062;SDS011;44851;45.648;9.004;2023-04-03T15:03:47;3.07;;;2.73;;
59062;SDS011;44851;45.648;9.004;2023-04-03T15:06:13;3.37;;;2.70;;
59062;SDS011;44851;45.648;9.004;2023-04-03T15:08:40;2.97;;;2.50;;
59062;SDS011;44851;45.648;9.004;2023-04-03T15:11:07;2.83;;;2.63;;
59062;SDS011;44851;45.648;9.004;2023-04-03T15:13:34;3.57;;;2.70;;
59062;SDS011;44851;45.648;9.004;2023-04-03T15:16:00;3.50;;;2.70;;
59062;SDS011;44851;45.648;9.004;2023-04-03T15:18:26;4.47;;;2.70;;
59062;SDS011;44851;45.648;9.004;2023-04-03T15:20:53;3.53;;;2.53;;
59062;SDS011;44851;45.648;9.004;2023-04-03T15:23:20;3.77;;;2.90;;
59062;SDS011;44851;45.648;9.004;2023-04-03T15:25:46;3.20;;;2.83;;
59062;SDS011;44851;45.648;9.004;2023-04-03T15:28:55;4.97;;;2.93;;
59062;SDS011;44851;45.648;9.004;2023-04-03T15:31:06;4.13;;;2.53;;
59062;SDS011;44851;45.648;9.004;2023-04-03T15:33:33;3.80;;;2.57;;
59062;SDS011;44851;45.648;9.004;2023-04-03T15:36:00;4.60;;;2.83;;
59062;SDS011;44851;45.648;9.004;2023-04-03T15:38:26;3.87;;;2.87;;
59062;SDS011;44851;45.648;9.004;2023-04-03T15:40:51;8.33;;;3.00;;
59062;SDS011;44851;45.648;9.004;2023-04-03T15:43:16;3.33;;;2.40;;
59062;SDS011;44851;45.648;9.004;2023-04-03T15:45:42;3.33;;;2.77;;
59062;SDS011;44851;45.648;9.004;2023-04-03T15:48:09;5.00;;;2.90;;
59062;SDS011;44851;45.648;9.004;2023-04-03T15:50:35;4.50;;;3.07;;
59062;SDS011;44851;45.648;9.004;2023-04-03T15:53:01;3.60;;;2.70;;
59062;SDS011;44851;45.648;9.004;2023-04-03T15:55:28;3.93;;;2.63;;
59062;SDS011;44851;45.648;9.004;2023-04-03T15:57:54;2.50;;;2.30;;
59062;SDS011;44851;45.648;9.004;2023-04-03T16:00:20;4.03;;;3.20;;
59062;SDS011;44851;45.648;9.004;2023-04-03T16:02:48;5.20;;;3.07;;
59062;SDS011;44851;45.648;9.004;2023-04-03T16:05:17;2.90;;;2.70;;
59062;SDS011;44851;45.648;9.004;2023-04-03T16:07:42;4.13;;;2.73;;
59062;SDS011;44851;45.648;9.004;2023-04-03T16:10:09;7.10;;;3.30;;
59062;SDS011;44851;45.648;9.004;2023-04-03T16:12:35;3.90;;;3.40;;
59062;SDS011;44851;45.648;9.004;2023-04-03T16:15:01;7.17;;;3.10;;
59062;SDS011;44851;45.648;9.004;2023-04-03T16:17:27;4.40;;;2.97;;
59062;SDS011;44851;45.648;9.004;2023-04-03T16:19:53;5.70;;;3.80;;
59062;SDS011;44851;45.648;9.004;2023-04-03T16:22:20;5.97;;;3.20;;
59062;SDS011;44851;45.648;9.004;2023-04-03T16:24:48;7.23;;;3.67;;
59062;SDS011;44851;45.648;9.004;2023-04-03T16:27:14;3.43;;;3.03;;
59062;SDS011;44851;45.648;9.004;2023-04-03T16:29:40;4.67;;;3.20;;
59062;SDS011;44851;45.648;9.004;2023-04-03T16:32:05;5.97;;;3.67;;
59062;SDS011;44851;45.648;9.004;2023-04-03T16:34:31;3.80;;;2.97;;
59062;SDS011;44851;45.648;9.004;2023-04-03T16:36:57;3.80;;;3.40;;
59062;SDS011;44851;45.648;9.004;2023-04-03T16:39:23;3.40;;;3.10;;
59062;SDS011;44851;45.648;9.004;2023-04-03T16:41:48;4.43;;;3.53;;
59062;SDS011;44851;45.648;9.004;2023-04-03T16:44:14;5.73;;;3.20;;
59062;SDS011;44851;45.648;9.004;2023-04-03T16:46:39;3.63;;;3.00;;
59062;SDS011;44851;45.648;9.004;2023-04-03T16:49:05;3.97;;;3.03;;
59062;SDS011;44851;45.648;9.004;2023-04-03T16:51:30;3.77;;;3.20;;
59062;SDS011;44851;45.648;9.004;2023-04-03T16:53:57;5.00;;;3.33;;
59062;SDS011;44851;45.648;9.004;2023-04-03T16:56:22;4.97;;;3.27;;
59062;SDS011;44851;45.648;9.004;2023-04-03T16:58:48;6.30;;;3.30;;
59062;SDS011;44851;45.648;9.004;2023-04-03T17:01:14;7.13;;;3.10;;
59062;SDS011;44851;45.648;9.004;2023-04-03T17:03:41;6.40;;;3.47;;
59062;SDS011;44851;45.648;9.004;2023-04-03T17:06:07;3.70;;;3.23;;
59062;SDS011;44851;45.648;9.004;2023-04-03T17:08:33;4.57;;;3.00;;
59062;SDS011;44851;45.648;9.004;2023-04-03T17:10:59;4.30;;;3.23;;
59062;SDS011;44851;45.648;9.004;2023-04-03T17:13:24;5.37;;;3.17;;
59062;SDS011;44851;45.648;9.004;2023-04-03T17:15:56;3.57;;;3.17;;
59062;SDS011;44851;45.648;9.004;2023-04-03T17:18:21;4.70;;;3.17;;
59062;SDS011;44851;45.648;9.004;2023-04-03T17:20:47;6.20;;;3.57;;
59062;SDS011;44851;45.648;9.004;2023-04-03T17:23:13;7.93;;;3.30;;
59062;SDS011;44851;45.648;9.004;2023-04-03T17:25:38;9.20;;;3.57;;
59062;SDS011;44851;45.648;9.004;2023-04-03T17:28:04;5.10;;;2.83;;
59062;SDS011;44851;45.648;9.004;2023-04-03T17:30:29;4.07;;;3.17;;
59062;SDS011;44851;45.648;9.004;2023-04-03T17:32:55;4.33;;;2.97;;
59062;SDS011;44851;45.648;9.004;2023-04-03T17:35:20;6.23;;;3.47;;
59062;SDS011;44851;45.648;9.004;2023-04-03T17:37:47;5.63;;;3.20;;
59062;SDS011;44851;45.648;9.004;2023-04-03T17:40:14;6.50;;;3.67;;
59062;SDS011;44851;45.648;9.004;2023-04-03T17:42:41;8.43;;;3.27;;
59062;SDS011;44851;45.648;9.004;2023-04-03T17:45:07;5.50;;;3.33;;
59062;SDS011;44851;45.648;9.004;2023-04-03T17:47:33;5.60;;;2.97;;
59062;SDS011;44851;45.648;9.004;2023-04-03T17:49:59;6.10;;;3.47;;
59062;SDS011;44851;45.648;9.004;2023-04-03T17:52:24;7.90;;;3.10;;
59062;SDS011;44851;45.648;9.004;2023-04-03T17:54:52;4.50;;;3.30;;
59062;SDS011;44851;45.648;9.004;2023-04-03T17:57:18;4.80;;;3.17;;
59062;SDS011;44851;45.648;9.004;2023-04-03T17:59:43;6.20;;;3.47;;
59062;SDS011;44851;45.648;9.004;2023-04-03T18:02:08;5.83;;;3.00;;
59062;SDS011;44851;45.648;9.004;2023-04-03T18:04:34;6.30;;;3.67;;
59062;SDS011;44851;45.648;9.004;2023-04-03T18:07:00;3.83;;;2.90;;
59062;SDS011;44851;45.648;9.004;2023-04-03T18:09:31;11.33;;;3.20;;
59062;SDS011;44851;45.648;9.004;2023-04-03T18:11:58;3.97;;;3.20;;
59062;SDS011;44851;45.648;9.004;2023-04-03T18:14:26;5.83;;;2.90;;
59062;SDS011;44851;45.648;9.004;2023-04-03T18:16:53;4.20;;;3.03;;
59062;SDS011;44851;45.648;9.004;2023-04-03T18:19:21;6.97;;;3.57;;
59062;SDS011;44851;45.648;9.004;2023-04-03T18:21:47;4.70;;;3.10;;
59062;SDS011;44851;45.648;9.004;2023-04-03T18:24:14;6.03;;;3.33;;
59062;SDS011;44851;45.648;9.004;2023-04-03T18:26:42;3.33;;;2.73;;
59062;SDS011;44851;45.648;9.004;2023-04-03T18:29:10;4.40;;;2.70;;
59062;SDS011;44851;45.648;9.004;2023-04-03T18:31:36;4.03;;;2.80;;
59062;SDS011;44851;45.648;9.004;2023-04-03T18:34:05;4.77;;;3.00;;
59062;SDS011;44851;45.648;9.004;2023-04-03T18:36:31;5.33;;;3.10;;
59062;SDS011;44851;45.648;9.004;2023-04-03T18:38:56;5.70;;;3.20;;
59062;SDS011;44851;45.648;9.004;2023-04-03T18:41:22;5.47;;;3.27;;
59062;SDS011;44851;45.648;9.004;2023-04-03T18:43:51;4.03;;;2.77;;
59062;SDS011;44851;45.648;9.004;2023-04-03T18:46:17;9.87;;;3.63;;
59062;SDS011;44851;45.648;9.004;2023-04-03T18:48:43;3.33;;;3.03;;
59062;SDS011;44851;45.648;9.004;2023-04-03T18:51:10;3.70;;;3.30;;
59062;SDS011;44851;45.648;9.004;2023-04-03T18:53:36;4.07;;;3.03;;
59062;SDS011;44851;45.648;9.004;2023-04-03T18:56:01;5.93;;;3.40;;
59062;SDS011;44851;45.648;9.004;2023-04-03T18:58:27;3.53;;;2.97;;
59062;SDS011;44851;45.648;9.004;2023-04-03T19:00:52;4.87;;;2.90;;
59062;SDS011;44851;45.648;9.004;2023-04-03T19:03:18;5.83;;;3.23;;
59062;SDS011;44851;45.648;9.004;2023-04-03T19:05:43;5.03;;;3.27;;
59062;SDS011;44851;45.648;9.004;2023-04-03T19:08:10;4.27;;;3.00;;
59062;SDS011;44851;45.648;9.004;2023-04-03T19:10:35;5.60;;;3.37;;
59062;SDS011;44851;45.648;9.004;2023-04-03T19:13:01;6.47;;;3.20;;
59062;SDS011;44851;45.648;9.004;2023-04-03T19:15:26;7.10;;;3.37;;
59062;SDS011;44851;45.648;9.004;2023-04-03T19:17:52;6.37;;;3.57;;
59062;SDS011;44851;45.648;9.004;2023-04-03T19:20:18;7.93;;;3.40;;
59062;SDS011;44851;45.648;9.004;2023-04-03T19:22:43;5.47;;;3.10;;
59062;SDS011;44851;45.648;9.004;2023-04-03T19:25:09;5.53;;;3.50;;
59062;SDS011;44851;45.648;9.004;2023-04-03T19:27:36;6.27;;;3.03;;
59062;SDS011;44851;45.648;9.004;2023-04-03T19:30:02;5.30;;;3.13;;
59062;SDS011;44851;45.648;9.004;2023-04-03T19:32:29;4.93;;;2.80;;
59062;SDS011;44851;45.648;9.004;2023-04-03T19:34:58;6.17;;;3.40;;
59062;SDS011;44851;45.648;9.004;2023-04-03T19:37:25;7.30;;;3.30;;
59062;SDS011;44851;45.648;9.004;2023-04-03T19:39:53;5.90;;;3.13;;
59062;SDS011;44851;45.648;9.004;2023-04-03T19:42:19;2.83;;;2.50;;
59062;SDS011;44851;45.648;9.004;2023-04-03T19:44:45;4.60;;;3.30;;
59062;SDS011;44851;45.648;9.004;2023-04-03T19:47:12;5.03;;;3.20;;
59062;SDS011;44851;45.648;9.004;2023-04-03T19:49:40;7.70;;;3.20;;
59062;SDS011;44851;45.648;9.004;2023-04-03T19:52:06;5.13;;;3.00;;
59062;SDS011;44851;45.648;9.004;2023-04-03T19:54:32;3.73;;;3.07;;
59062;SDS011;44851;45.648;9.004;2023-04-03T19:56:57;6.17;;;3.37;;
59062;SDS011;44851;45.648;9.004;2023-04-03T19:59:23;5.30;;;2.90;;
59062;SDS011;44851;45.648;9.004;2023-04-03T20:01:48;4.30;;;2.90;;
59062;SDS011;44851;45.648;9.004;2023-04-03T20:04:14;5.00;;;3.00;;
59062;SDS011;44851;45.648;9.004;2023-04-03T20:06:40;4.77;;;2.93;;
59062;SDS011;44851;45.648;9.004;2023-04-03T20:09:06;3.80;;;2.90;;
59062;SDS011;44851;45.648;9.004;2023-04-03T20:11:35;4.70;;;2.93;;
59062;SDS011;44851;45.648;9.004;2023-04-03T20:14:01;5.80;;;2.70;;
59062;SDS011;44851;45.648;9.004;2023-04-03T20:16:28;4.17;;;2.80;;
59062;SDS011;44851;45.648;9.004;2023-04-03T20:18:54;6.30;;;3.37;;
59062;SDS011;44851;45.648;9.004;2023-04-03T20:21:26;4.43;;;2.77;;
59062;SDS011;44851;45.648;9.004;2023-04-03T20:23:56;4.33;;;2.20;;
59062;SDS011;44851;45.648;9.004;2023-04-03T20:26:23;4.20;;;3.00;;
59062;SDS011;44851;45.648;9.004;2023-04-03T20:28:51;2.63;;;2.43;;
59062;SDS011;44851;45.648;9.004;2023-04-03T20:31:19;4.40;;;3.00;;
59062;SDS011;44851;45.648;9.004;2023-04-03T20:33:46;5.70;;;2.67;;
59062;SDS011;44851;45.648;9.004;2023-04-03T20:36:13;6.20;;;2.97;;
59062;SDS011;44851;45.648;9.004;2023-04-03T20:38:39;4.77;;;2.50;;
59062;SDS011;44851;45.648;9.004;2023-04-03T20:41:05;5.00;;;3.10;;
59062;SDS011;44851;45.648;9.004;2023-04-03T20:43:31;4.53;;;2.53;;
59062;SDS011;44851;45.648;9.004;2023-04-03T20:45:59;6.27;;;2.67;;
59062;SDS011;44851;45.648;9.004;2023-04-03T20:48:26;4.27;;;2.77;;
59062;SDS011;44851;45.648;9.004;2023-04-03T20:50:52;3.40;;;2.30;;
59062;SDS011;44851;45.648;9.004;2023-04-03T20:53:18;4.10;;;2.43;;
59062;SDS011;44851;45.648;9.004;2023-04-03T20:55:57;3.20;;;2.53;;
59062;SDS011;44851;45.648;9.004;2023-04-03T20:58:24;3.57;;;2.70;;
59062;SDS011;44851;45.648;9.004;2023-04-03T21:00:53;5.07;;;2.50;;
59062;SDS011;44851;45.648;9.004;2023-04-03T21:03:20;3.47;;;2.40;;
59062;SDS011;44851;45.648;9.004;2023-04-03T21:19:57;4.13;;;2.07;;
59062;SDS011;44851;45.648;9.004;2023-04-03T21:22:22;4.77;;;2.83;;
59062;SDS011;44851;45.648;9.004;2023-04-03T21:24:48;4.50;;;2.57;;
59062;SDS011;44851;45.648;9.004;2023-04-03T21:27:13;5.17;;;2.50;;
59062;SDS011;44851;45.648;9.004;2023-04-03T21:29:39;4.70;;;2.30;;
59062;SDS011;44851;45.648;9.004;2023-04-03T21:32:04;3.13;;;2.57;;
59062;SDS011;44851;45.648;9.004;2023-04-03T21:34:30;3.43;;;2.40;;
59062;SDS011;44851;45.648;9.004;2023-04-03T21:36:56;3.73;;;2.20;;
59062;SDS011;44851;45.648;9.004;2023-04-03T21:39:25;4.87;;;1.90;;
59062;SDS011;44851;45.648;9.004;2023-04-03T21:41:51;2.40;;;2.20;;
59062;SDS011;44851;45.648;9.004;2023-04-03T21:44:17;4.40;;;2.60;;
59062;SDS011;44851;45.648;9.004;2023-04-03T21:46:43;4.13;;;2.60;;
59062;SDS011;44851;45.648;9.004;2023-04-03T21:49:10;5.00;;;2.30;;
59062;SDS011;44851;45.648;9.004;2023-04-03T21:51:35;3.87;;;2.20;;
59062;SDS011;44851;45.648;9.004;2023-04-03T21:54:01;4.77;;;2.30;;
59062;SDS011;44851;45.648;9.004;2023-04-03T21:56:26;5.70;;;2.60;;
59062;SDS011;44851;45.648;9.004;2023-04-03T21:58:52;3.77;;;2.40;;
59062;SDS011;44851;45.648;9.004;2023-04-03T22:01:18;4.33;;;2.87;;
59062;SDS011;44851;45.648;9.004;2023-04-03T22:03:45;5.00;;;2.80;;
59062;SDS011;44851;45.648;9.004;2023-04-03T22:06:12;4.23;;;2.50;;
59062;SDS011;44851;45.648;9.004;2023-04-03T22:08:39;6.63;;;2.40;;
59062;SDS011;44851;45.648;9.004;2023-04-03T22:11:06;5.23;;;2.80;;
59062;SDS011;44851;45.648;9.004;2023-04-03T22:13:33;4.47;;;2.80;;
59062;SDS011;44851;45.648;9.004;2023-04-03T22:15:59;2.93;;;2.60;;
59062;SDS011;44851;45.648;9.004;2023-04-03T22:18:26;5.30;;;3.00;;
59062;SDS011;44851;45.648;9.004;2023-04-03T22:20:52;7.00;;;2.90;;
59062;SDS011;44851;45.648;9.004;2023-04-03T22:23:19;3.73;;;2.43;;
59062;SDS011;44851;45.648;9.004;2023-04-03T22:25:57;5.43;;;2.33;;
59062;SDS011;44851;45.648;9.004;2023-04-03T22:28:31;3.73;;;2.10;;
59062;SDS011;44851;45.648;9.004;2023-04-03T22:31:01;2.80;;;2.20;;
59062;SDS011;44851;45.648;9.004;2023-04-03T22:33:28;4.97;;;2.23;;
59062;SDS011;44851;45.648;9.004;2023-04-03T22:35:53;2.87;;;2.27;;
59062;SDS011;44851;45.648;9.004;2023-04-03T22:38:19;4.50;;;2.40;;
59062;SDS011;44851;45.648;9.004;2023-04-03T22:40:44;2.40;;;2.20;;
59062;SDS011;44851;45.648;9.004;2023-04-03T22:43:10;3.90;;;2.27;;
59062;SDS011;44851;45.648;9.004;2023-04-03T22:45:44;4.40;;;2.60;;
59062;SDS011;44851;45.648;9.004;2023-04-03T22:48:10;2.87;;;2.40;;
59062;SDS011;44851;45.648;9.004;2023-04-03T22:50:36;3.70;;;2.27;;
59062;SDS011;44851;45.648;9.004;2023-04-03T22:53:03;5.43;;;2.30;;
59062;SDS011;44851;45.648;9.004;2023-04-03T22:55:28;4.77;;;1.87;;
59062;SDS011;44851;45.648;9.004;2023-04-03T22:57:54;3.47;;;1.80;;
59062;SDS011;44851;45.648;9.004;2023-04-03T23:00:19;3.80;;;1.80;;
59062;SDS011;44851;45.648;9.004;2023-04-03T23:02:45;3.07;;;1.90;;
59062;SDS011;44851;45.648;9.004;2023-04-03T23:05:10;3.03;;;1.80;;
59062;SDS011;44851;45.648;9.004;2023-04-03T23:07:36;2.73;;;1.80;;
59062;SDS011;44851;45.648;9.004;2023-04-03T23:10:01;4.83;;;2.30;;
59062;SDS011;44851;45.648;9.004;2023-04-03T23:12:27;2.83;;;1.97;;
59062;SDS011;44851;45.648;9.004;2023-04-03T23:14:52;2.67;;;1.73;;
59062;SDS011;44851;45.648;9.004;2023-04-03T23:17:17;3.20;;;1.90;;
59062;SDS011;44851;45.648;9.004;2023-04-03T23:19:43;2.43;;;1.90;;
59062;SDS011;44851;45.648;9.004;2023-04-03T23:22:08;3.10;;;1.93;;
59062;SDS011;44851;45.648;9.004;2023-04-03T23:24:35;2.17;;;1.83;;
59062;SDS011;44851;45.648;9.004;2023-04-03T23:27:02;2.70;;;1.73;;
59062;SDS011;44851;45.648;9.004;2023-04-03T23:29:29;2.57;;;1.70;;
59062;SDS011;44851;45.648;9.004;2023-04-03T23:31:54;5.07;;;2.03;;
59062;SDS011;44851;45.648;9.004;2023-04-03T23:34:20;3.47;;;2.00;;
59062;SDS011;44851;45.648;9.004;2023-04-03T23:36:45;3.10;;;2.20;;
59062;SDS011;44851;45.648;9.004;2023-04-03T23:39:11;2.60;;;2.10;;
59062;SDS011;44851;45.648;9.004;2023-04-03T23:41:36;3.57;;;2.37;;
59062;SDS011;44851;45.648;9.004;2023-04-03T23:44:02;3.00;;;2.00;;
59062;SDS011;44851;45.648;9.004;2023-04-03T23:46:27;3.40;;;2.00;;
59062;SDS011;44851;45.648;9.004;2023-04-03T23:48:52;3.30;;;2.20;;
59062;SDS011;44851;45.648;9.004;2023-04-03T23:51:18;2.20;;;2.00;;
59062;SDS011;44851;45.648;9.004;2023-04-03T23:53:43;4.07;;;2.07;;
59062;SDS011;44851;45.648;9.004;2023-04-03T23:56:08;2.67;;;1.83;;
59062;SDS011;44851;45.648;9.004;2023-04-03T23:58:36;2.73;;;2.03;;
